Time,TemperatureF,DewpointF,PressureIn,WindDirection,WindDirectionDegrees,WindSpeedMPH,WindSpeedGustMPH,Humidity,HourlyPrecipIn,Conditions,Clouds,dailyrainin,SoftwareType,DateUTC
2013-08-29 00:01:00,71.8,69.7,29.29,West,270,0.0,0.0,93,0.00,,---,0.00,VWS V14.01,2013-08-29 05:01:00,
2013-08-29 00:06:00,71.8,69.7,29.29,West,270,0.0,0.0,93,0.00,,---,0.00,VWS V14.01,2013-08-29 05:06:00,
2013-08-29 00:11:00,71.6,69.5,29.29,West,270,0.0,0.0,93,0.00,,---,0.00,VWS V14.01,2013-08-29 05:11:00,
2013-08-29 00:16:00,71.6,69.5,29.29,West,270,0.0,0.0,93,0.00,,---,0.00,VWS V14.01,2013-08-29 05:16:00,
2013-08-29 00:21:00,71.6,69.5,29.29,West,270,0.0,0.0,93,0.00,,---,0.00,VWS V14.01,2013-08-29 05:21:00,
2013-08-29 00:26:00,71.6,69.8,29.29,West,270,0.0,0.0,94,0.00,,---,0.00,VWS V14.01,2013-08-29 05:26:00,
2013-08-29 00:31:00,71.4,69.6,29.29,West,270,0.0,0.0,94,0.00,,---,0.00,VWS V14.01,2013-08-29 05:31:00,
2013-08-29 00:36:00,71.4,69.6,29.29,West,270,0.0,0.0,94,0.00,,---,0.00,VWS V14.01,2013-08-29 05:36:00,
2013-08-29 00:41:00,71.2,69.4,29.29,West,270,0.0,0.0,94,0.00,,---,0.00,VWS V14.01,2013-08-29 05:41:00,
2013-08-29 00:46:00,71.2,69.4,29.29,West,270,0.0,0.0,94,0.00,,---,0.00,VWS V14.01,2013-08-29 05:46:00,
2013-08-29 00:51:00,71.1,69.2,29.29,West,270,0.0,0.0,94,0.00,,---,0.00,VWS V14.01,2013-08-29 05:51:00,
2013-08-29 00:56:00,71.1,69.2,29.29,West,270,0.0,0.0,94,0.00,,---,0.00,VWS V14.01,2013-08-29 05:56:00,
2013-08-29 01:01:00,70.9,69.1,29.29,West,270,0.0,0.0,94,0.00,,---,0.00,VWS V14.01,2013-08-29 06:01:00,
2013-08-29 01:06:00,70.9,69.1,29.29,West,270,0.0,0.0,94,0.00,,---,0.00,VWS V14.01,2013-08-29 06:06:00,
2013-08-29 01:11:00,70.9,69.4,29.29,West,270,0.0,0.0,95,0.00,,---,0.00,VWS V14.01,2013-08-29 06:11:00,
2013-08-29 01:16:00,70.7,69.2,29.26,West,270,0.0,0.0,95,0.00,,---,0.00,VWS V14.01,2013-08-29 06:16:00,
2013-08-29 01:21:00,70.7,69.2,29.26,West,270,0.0,0.0,95,0.00,,---,0.00,VWS V14.01,2013-08-29 06:21:00,
2013-08-29 01:26:00,70.7,69.2,29.26,West,270,0.0,0.0,95,0.00,,---,0.00,VWS V14.01,2013-08-29 06:26:00,
2013-08-29 01:31:00,70.7,69.2,29.26,West,270,0.0,0.0,95,0.00,,---,0.00,VWS V14.01,2013-08-29 06:31:00,
2013-08-29 01:36:00,70.5,69.0,29.26,West,270,0.0,0.0,95,0.00,,---,0.00,VWS V14.01,2013-08-29 06:36:00,
2013-08-29 01:41:00,70.5,69.0,29.26,West,270,0.0,0.0,95,0.00,,---,0.00,VWS V14.01,2013-08-29 06:41:00,
2013-08-29 01:46:00,70.5,69.0,29.26,West,270,0.0,0.0,95,0.00,,---,0.00,VWS V14.01,2013-08-29 06:46:00,
2013-08-29 01:51:00,70.3,68.8,29.26,West,270,0.0,0.0,95,0.00,,---,0.00,VWS V14.01,2013-08-29 06:51:00,
2013-08-29 01:56:00,70.3,68.8,29.26,West,270,0.0,0.0,95,0.00,,---,0.00,VWS V14.01,2013-08-29 06:56:00,
2013-08-29 02:01:00,70.2,68.7,29.26,West,270,0.0,0.0,95,0.00,,---,0.00,VWS V14.01,2013-08-29 07:01:00,
2013-08-29 02:06:00,70.2,69.0,29.26,West,270,0.0,0.0,96,0.00,,---,0.00,VWS V14.01,2013-08-29 07:06:00,
2013-08-29 02:11:00,70.2,69.0,29.23,West,270,0.0,0.0,96,0.00,,---,0.00,VWS V14.01,2013-08-29 07:11:00,
2013-08-29 02:16:00,70.2,69.0,29.23,West,270,0.0,0.0,96,0.00,,---,0.00,VWS V14.01,2013-08-29 07:16:00,
2013-08-29 02:21:00,70.0,68.8,29.23,West,270,0.0,0.0,96,0.00,,---,0.00,VWS V14.01,2013-08-29 07:21:00,
2013-08-29 02:26:00,70.0,68.8,29.26,West,270,0.0,0.0,96,0.00,,---,0.00,VWS V14.01,2013-08-29 07:26:00,
2013-08-29 02:31:00,70.0,68.8,29.26,West,270,0.0,0.0,96,0.00,,---,0.00,VWS V14.01,2013-08-29 07:31:00,
2013-08-29 02:36:00,70.0,68.8,29.26,West,270,0.0,0.0,96,0.00,,---,0.00,VWS V14.01,2013-08-29 07:36:00,
2013-08-29 02:41:00,69.8,68.6,29.26,West,270,0.0,0.0,96,0.00,,---,0.00,VWS V14.01,2013-08-29 07:41:00,
2013-08-29 02:46:00,69.8,68.6,29.26,West,270,0.0,0.0,96,0.00,,---,0.00,VWS V14.01,2013-08-29 07:46:00,
2013-08-29 02:51:00,69.8,68.6,29.26,West,270,0.0,0.0,96,0.00,,---,0.00,VWS V14.01,2013-08-29 07:51:00,
2013-08-29 02:56:00,69.8,68.6,29.23,West,270,0.0,0.0,96,0.00,,---,0.00,VWS V14.01,2013-08-29 07:56:00,
2013-08-29 03:01:00,69.8,68.6,29.23,West,270,0.0,0.0,96,0.00,,---,0.00,VWS V14.01,2013-08-29 08:01:00,
2013-08-29 03:06:00,69.6,68.7,29.23,West,270,0.0,0.0,97,0.00,,---,0.00,VWS V14.01,2013-08-29 08:06:00,
2013-08-29 03:11:00,69.6,68.7,29.26,West,270,0.0,0.0,97,0.00,,---,0.00,VWS V14.01,2013-08-29 08:11:00,
2013-08-29 03:16:00,69.6,68.4,29.26,West,270,0.0,0.0,96,0.00,,---,0.00,VWS V14.01,2013-08-29 08:16:00,
2013-08-29 03:21:00,69.6,68.7,29.26,West,270,0.0,0.0,97,0.00,,---,0.00,VWS V14.01,2013-08-29 08:21:00,
2013-08-29 03:26:00,69.6,68.4,29.26,West,270,0.0,0.0,96,0.00,,---,0.00,VWS V14.01,2013-08-29 08:26:00,
2013-08-29 03:31:00,69.6,68.7,29.26,West,270,0.0,0.0,97,0.00,,---,0.00,VWS V14.01,2013-08-29 08:31:00,
2013-08-29 03:36:00,69.4,68.6,29.26,West,270,0.0,0.0,97,0.00,,---,0.00,VWS V14.01,2013-08-29 08:36:00,
2013-08-29 03:41:00,69.4,68.6,29.26,West,270,0.0,0.0,97,0.00,,---,0.00,VWS V14.01,2013-08-29 08:41:00,
2013-08-29 03:46:00,69.4,68.6,29.26,West,270,0.0,0.0,97,0.00,,---,0.00,VWS V14.01,2013-08-29 08:46:00,
2013-08-29 03:51:00,69.4,68.6,29.26,West,270,0.0,0.0,97,0.00,,---,0.00,VWS V14.01,2013-08-29 08:51:00,
2013-08-29 03:56:00,69.3,68.4,29.26,West,270,0.0,0.0,97,0.00,,---,0.00,VWS V14.01,2013-08-29 08:56:00,
2013-08-29 04:01:00,69.3,68.4,29.26,West,270,0.0,0.0,97,0.00,,---,0.00,VWS V14.01,2013-08-29 09:01:00,
2013-08-29 04:06:00,69.1,68.2,29.26,West,270,0.0,0.0,97,0.00,,---,0.00,VWS V14.01,2013-08-29 09:06:00,
2013-08-29 04:11:00,69.1,68.2,29.26,West,270,0.0,0.0,97,0.00,,---,0.00,VWS V14.01,2013-08-29 09:11:00,
2013-08-29 04:16:00,69.1,68.2,29.23,West,270,0.0,0.0,97,0.00,,---,0.00,VWS V14.01,2013-08-29 09:16:00,
2013-08-29 04:21:00,68.9,68.0,29.23,West,270,0.0,0.0,97,0.00,,---,0.00,VWS V14.01,2013-08-29 09:21:00,
2013-08-29 04:26:00,68.9,68.0,29.23,West,270,0.0,0.0,97,0.00,,---,0.00,VWS V14.01,2013-08-29 09:26:00,
2013-08-29 04:31:00,68.7,67.8,29.26,West,270,0.0,0.0,97,0.00,,---,0.00,VWS V14.01,2013-08-29 09:31:00,
2013-08-29 04:36:00,68.7,67.8,29.26,West,270,0.0,0.0,97,0.00,,---,0.00,VWS V14.01,2013-08-29 09:36:00,
2013-08-29 04:41:00,68.7,68.1,29.26,West,270,0.0,0.0,98,0.00,,---,0.00,VWS V14.01,2013-08-29 09:41:00,
2013-08-29 04:46:00,68.5,68.0,29.26,West,270,0.0,0.0,98,0.00,,---,0.00,VWS V14.01,2013-08-29 09:46:00,
2013-08-29 04:51:00,68.5,67.7,29.26,West,270,0.0,0.0,97,0.00,,---,0.00,VWS V14.01,2013-08-29 09:51:00,
2013-08-29 04:56:00,68.5,67.7,29.26,West,270,0.0,0.0,97,0.00,,---,0.00,VWS V14.01,2013-08-29 09:56:00,
2013-08-29 05:01:00,68.4,67.8,29.26,West,270,0.0,0.0,98,0.00,,---,0.00,VWS V14.01,2013-08-29 10:01:00,
2013-08-29 05:06:00,68.5,68.0,29.26,WNW,292,0.0,0.0,98,0.00,,---,0.00,VWS V14.01,2013-08-29 10:06:00,
2013-08-29 05:11:00,68.5,67.7,29.26,WNW,292,0.0,0.9,97,0.00,,---,0.00,VWS V14.01,2013-08-29 10:11:00,
2013-08-29 05:16:00,68.5,68.0,29.26,NW,315,0.0,0.0,98,0.00,,---,0.00,VWS V14.01,2013-08-29 10:16:00,
2013-08-29 05:21:00,68.5,68.0,29.26,North,0,0.0,0.0,98,0.00,,---,0.00,VWS V14.01,2013-08-29 10:21:00,
2013-08-29 05:25:00,68.4,67.8,29.26,North,0,0.0,0.0,98,0.00,,---,0.00,VWS V14.01,2013-08-29 10:25:00,
2013-08-29 05:30:00,68.4,67.8,29.26,North,0,0.0,0.0,98,0.00,,---,0.00,VWS V14.01,2013-08-29 10:30:00,
2013-08-29 05:35:00,68.5,68.0,29.26,North,0,0.9,1.1,98,0.00,,---,0.00,VWS V14.01,2013-08-29 10:35:00,
2013-08-29 05:40:00,68.4,67.8,29.26,North,0,0.0,0.0,98,0.00,,---,0.00,VWS V14.01,2013-08-29 10:40:00,
2013-08-29 05:45:00,68.4,67.8,29.26,North,0,0.0,0.0,98,0.00,,---,0.00,VWS V14.01,2013-08-29 10:45:00,
2013-08-29 05:50:00,68.4,67.8,29.26,ENE,68,1.1,1.1,98,0.00,,---,0.00,VWS V14.01,2013-08-29 10:50:00,
2013-08-29 05:55:00,68.4,67.8,29.26,ENE,68,0.0,0.0,98,0.00,,---,0.00,VWS V14.01,2013-08-29 10:55:00,
2013-08-29 06:00:00,68.4,67.8,29.29,ENE,68,0.9,1.3,98,0.00,,---,0.00,VWS V14.01,2013-08-29 11:00:00,
2013-08-29 06:05:00,68.4,67.8,29.29,ENE,68,0.0,0.0,98,0.00,,---,0.00,VWS V14.01,2013-08-29 11:05:00,
2013-08-29 06:10:00,68.2,67.6,29.29,ENE,68,0.0,0.0,98,0.00,,---,0.00,VWS V14.01,2013-08-29 11:10:00,
2013-08-29 06:15:00,68.2,67.6,29.29,ENE,68,0.0,0.0,98,0.00,,---,0.00,VWS V14.01,2013-08-29 11:15:00,
2013-08-29 06:20:00,68.2,67.6,29.29,ENE,68,0.0,0.0,98,0.00,,---,0.00,VWS V14.01,2013-08-29 11:20:00,
2013-08-29 06:25:00,68.0,67.4,29.29,ENE,68,0.9,1.1,98,0.00,,---,0.00,VWS V14.01,2013-08-29 11:25:00,
2013-08-29 06:30:00,68.0,67.4,29.32,ENE,68,0.0,0.0,98,0.00,,---,0.00,VWS V14.01,2013-08-29 11:30:00,
2013-08-29 06:35:00,68.0,67.4,29.32,ENE,68,0.0,0.0,98,0.00,,---,0.00,VWS V14.01,2013-08-29 11:35:00,
2013-08-29 06:40:00,68.0,67.4,29.32,ENE,68,0.0,0.0,98,0.00,,---,0.00,VWS V14.01,2013-08-29 11:40:00,
2013-08-29 06:45:00,68.0,67.4,29.32,ENE,68,0.0,0.0,98,0.00,,---,0.00,VWS V14.01,2013-08-29 11:45:00,
2013-08-29 06:50:00,68.2,67.6,29.32,ENE,68,0.0,0.0,98,0.00,,---,0.00,VWS V14.01,2013-08-29 11:50:00,
2013-08-29 06:55:00,68.2,67.6,29.32,ENE,68,0.0,0.0,98,0.00,,---,0.00,VWS V14.01,2013-08-29 11:55:00,
2013-08-29 07:00:00,68.4,67.8,29.32,ENE,68,0.0,0.0,98,0.00,,---,0.00,VWS V14.01,2013-08-29 12:00:00,
2013-08-29 07:05:00,68.4,67.8,29.32,ENE,68,0.0,0.0,98,0.00,,---,0.00,VWS V14.01,2013-08-29 12:05:00,
2013-08-29 07:10:00,68.5,68.0,29.32,ENE,68,0.0,0.0,98,0.00,,---,0.00,VWS V14.01,2013-08-29 12:10:00,
2013-08-29 07:15:00,68.7,68.1,29.32,ENE,68,0.0,0.0,98,0.00,,---,0.00,VWS V14.01,2013-08-29 12:15:00,
2013-08-29 07:20:00,69.1,68.5,29.32,ENE,68,0.0,0.0,98,0.00,,---,0.00,VWS V14.01,2013-08-29 12:20:00,
2013-08-29 07:25:00,69.1,68.5,29.32,ENE,68,0.0,0.0,98,0.00,,---,0.00,VWS V14.01,2013-08-29 12:25:00,
2013-08-29 07:30:00,69.4,68.8,29.32,ENE,68,0.0,0.0,98,0.00,,---,0.00,VWS V14.01,2013-08-29 12:30:00,
2013-08-29 07:35:00,69.6,69.0,29.32,ENE,68,0.0,0.0,98,0.00,,---,0.00,VWS V14.01,2013-08-29 12:35:00,
2013-08-29 07:40:00,70.0,69.4,29.32,NNE,22,0.0,0.0,98,0.00,,---,0.00,VWS V14.01,2013-08-29 12:40:00,
2013-08-29 07:45:00,70.5,69.9,29.32,North,0,0.0,0.0,98,0.00,,---,0.00,VWS V14.01,2013-08-29 12:45:00,
2013-08-29 07:50:00,70.7,70.1,29.32,North,0,0.0,0.0,98,0.00,,---,0.00,VWS V14.01,2013-08-29 12:50:00,
2013-08-29 07:55:00,70.9,70.3,29.32,North,0,0.0,0.0,98,0.00,,---,0.00,VWS V14.01,2013-08-29 12:55:00,
2013-08-29 08:00:00,71.6,70.7,29.32,North,0,0.0,0.0,97,0.00,,---,0.00,VWS V14.01,2013-08-29 13:00:00,
2013-08-29 08:05:00,72.3,71.4,29.32,North,0,0.0,0.0,97,0.00,,---,0.00,VWS V14.01,2013-08-29 13:05:00,
2013-08-29 08:10:00,73.6,72.7,29.32,West,270,1.6,1.6,97,0.00,,---,0.00,VWS V14.01,2013-08-29 13:10:00,
2013-08-29 08:15:00,74.5,73.3,29.32,West,270,0.0,0.0,96,0.00,,---,0.00,VWS V14.01,2013-08-29 13:15:00,
2013-08-29 08:20:00,74.8,72.7,29.32,WNW,292,3.1,3.1,93,0.00,,---,0.00,VWS V14.01,2013-08-29 13:20:00,
2013-08-29 08:25:00,75.4,72.6,29.32,West,270,0.0,0.0,91,0.00,,---,0.00,VWS V14.01,2013-08-29 13:25:00,
2013-08-29 08:30:00,75.6,73.1,29.32,West,270,0.0,0.0,92,0.00,,---,0.00,VWS V14.01,2013-08-29 13:30:00,
2013-08-29 08:35:00,75.7,72.9,29.32,West,270,0.0,0.0,91,0.00,,---,0.00,VWS V14.01,2013-08-29 13:35:00,
2013-08-29 08:40:00,75.9,73.1,29.32,West,270,0.0,0.0,91,0.00,,---,0.00,VWS V14.01,2013-08-29 13:40:00,
2013-08-29 08:45:00,75.9,73.1,29.32,West,270,0.9,0.9,91,0.00,,---,0.00,VWS V14.01,2013-08-29 13:45:00,
2013-08-29 08:50:00,76.3,73.1,29.32,West,270,0.0,0.0,90,0.00,,---,0.00,VWS V14.01,2013-08-29 13:50:00,
2013-08-29 08:55:00,76.5,73.3,29.32,West,270,0.0,0.0,90,0.00,,---,0.00,VWS V14.01,2013-08-29 13:55:00,
2013-08-29 09:00:00,76.6,73.5,29.32,West,270,1.3,1.3,90,0.00,,---,0.00,VWS V14.01,2013-08-29 14:00:00,
2013-08-29 09:05:00,77.0,73.2,29.32,NW,315,2.5,2.5,88,0.00,,---,0.00,VWS V14.01,2013-08-29 14:05:00,
2013-08-29 09:10:00,77.4,73.2,29.32,West,270,0.0,0.0,87,0.00,,---,0.00,VWS V14.01,2013-08-29 14:10:00,
2013-08-29 09:15:00,77.5,73.4,29.32,West,270,0.0,0.0,87,0.00,,---,0.00,VWS V14.01,2013-08-29 14:15:00,
2013-08-29 09:20:00,77.9,74.1,29.32,West,270,0.0,0.0,88,0.00,,---,0.00,VWS V14.01,2013-08-29 14:20:00,
2013-08-29 09:25:00,77.9,74.1,29.32,West,270,0.0,0.0,88,0.00,,---,0.00,VWS V14.01,2013-08-29 14:25:00,
2013-08-29 09:30:00,77.9,73.7,29.32,WSW,248,0.0,0.0,87,0.00,,---,0.00,VWS V14.01,2013-08-29 14:30:00,
2013-08-29 09:35:00,77.9,73.7,29.32,WSW,248,0.0,0.0,87,0.00,,---,0.00,VWS V14.01,2013-08-29 14:35:00,
2013-08-29 09:40:00,78.1,73.6,29.32,WSW,248,0.0,0.0,86,0.00,,---,0.00,VWS V14.01,2013-08-29 14:40:00,
2013-08-29 09:45:00,78.4,73.9,29.32,WSW,248,0.0,0.0,86,0.00,,---,0.00,VWS V14.01,2013-08-29 14:45:00,
2013-08-29 09:50:00,78.8,73.9,29.32,WSW,248,0.9,1.3,85,0.00,,---,0.00,VWS V14.01,2013-08-29 14:50:00,
2013-08-29 09:55:00,79.2,74.6,29.32,WSW,248,0.0,0.0,86,0.00,,---,0.00,VWS V14.01,2013-08-29 14:55:00,
2013-08-29 10:00:00,80.2,75.7,29.32,WSW,248,0.0,0.0,86,0.00,,---,0.00,VWS V14.01,2013-08-29 15:00:00,
2013-08-29 10:05:00,81.9,76.2,29.32,SW,225,0.0,0.0,83,0.00,,---,0.00,VWS V14.01,2013-08-29 15:05:00,
2013-08-29 10:10:00,82.9,76.1,29.32,SW,225,0.0,0.0,80,0.00,,---,0.00,VWS V14.01,2013-08-29 15:10:00,
2013-08-29 10:15:00,84.6,76.2,29.32,SW,225,1.3,2.7,76,0.00,,---,0.00,VWS V14.01,2013-08-29 15:15:00,
2013-08-29 10:20:00,86.2,77.7,29.32,SW,225,0.0,0.0,76,0.00,,---,0.00,VWS V14.01,2013-08-29 15:20:00,
2013-08-29 10:25:00,86.9,76.8,29.32,SW,225,1.1,2.5,72,0.00,,---,0.00,VWS V14.01,2013-08-29 15:25:00,
2013-08-29 10:30:00,87.1,75.2,29.29,NNW,338,1.1,1.3,68,0.00,,---,0.00,VWS V14.01,2013-08-29 15:30:00,
2013-08-29 10:35:00,88.2,76.3,29.29,SW,225,4.0,4.0,68,0.00,,---,0.00,VWS V14.01,2013-08-29 15:35:00,
2013-08-29 10:40:00,88.9,77.0,29.29,SW,225,0.0,1.1,68,0.00,,---,0.00,VWS V14.01,2013-08-29 15:40:00,
2013-08-29 10:44:00,89.2,75.9,29.32,West,270,0.9,1.6,65,0.00,,---,0.00,VWS V14.01,2013-08-29 15:44:00,
2013-08-29 10:49:00,89.6,73.9,29.32,West,270,1.6,2.5,60,0.00,,---,0.00,VWS V14.01,2013-08-29 15:49:00,
2013-08-29 10:54:00,90.1,74.9,29.32,NE,45,2.5,2.7,61,0.00,,---,0.00,VWS V14.01,2013-08-29 15:54:00,
2013-08-29 10:59:00,90.3,74.1,29.32,NW,315,1.6,2.0,59,0.00,,---,0.00,VWS V14.01,2013-08-29 15:59:00,
2013-08-29 11:04:00,90.7,74.4,29.32,WSW,248,0.0,1.3,59,0.00,,---,0.00,VWS V14.01,2013-08-29 16:04:00,
2013-08-29 11:09:00,91.0,74.2,29.32,West,270,2.9,2.9,58,0.00,,---,0.00,VWS V14.01,2013-08-29 16:09:00,
2013-08-29 11:14:00,91.6,76.2,29.32,SSW,202,0.0,1.1,61,0.00,,---,0.00,VWS V14.01,2013-08-29 16:14:00,
2013-08-29 11:19:00,91.9,76.6,29.32,North,0,0.0,0.0,61,0.00,,---,0.00,VWS V14.01,2013-08-29 16:19:00,
2013-08-29 11:24:00,92.3,75.9,29.32,North,0,1.1,1.1,59,0.00,,---,0.00,VWS V14.01,2013-08-29 16:24:00,
2013-08-29 11:29:00,91.9,74.0,29.32,North,0,2.9,2.9,56,0.00,,---,0.00,VWS V14.01,2013-08-29 16:29:00,
2013-08-29 11:34:00,92.3,75.9,29.32,West,270,0.9,2.5,59,0.00,,---,0.00,VWS V14.01,2013-08-29 16:34:00,
2013-08-29 11:39:00,92.3,73.8,29.32,West,270,1.1,3.1,55,0.00,,---,0.00,VWS V14.01,2013-08-29 16:39:00,
2013-08-29 11:44:00,92.7,74.7,29.32,West,270,2.0,2.5,56,0.00,,---,0.00,VWS V14.01,2013-08-29 16:44:00,
2013-08-29 11:49:00,93.2,75.2,29.32,West,270,1.1,1.6,56,0.00,,---,0.00,VWS V14.01,2013-08-29 16:49:00,
2013-08-29 11:54:00,93.6,74.4,29.32,West,270,1.3,1.3,54,0.00,,---,0.00,VWS V14.01,2013-08-29 16:54:00,
2013-08-29 11:59:00,93.7,76.2,29.32,West,270,1.6,1.6,57,0.00,,---,0.00,VWS V14.01,2013-08-29 16:59:00,
2013-08-29 12:04:00,93.2,74.1,29.32,West,270,2.7,2.7,54,0.00,,---,0.00,VWS V14.01,2013-08-29 17:04:00,
2013-08-29 12:09:00,93.7,75.7,29.32,West,270,1.6,2.0,56,0.00,,---,0.00,VWS V14.01,2013-08-29 17:09:00,
2013-08-29 12:14:00,91.9,74.5,29.32,West,270,0.9,2.0,57,0.00,,---,0.00,VWS V14.01,2013-08-29 17:14:00,
2013-08-29 12:19:00,93.4,74.3,29.32,West,270,1.3,1.3,54,0.00,,---,0.00,VWS V14.01,2013-08-29 17:19:00,
2013-08-29 12:24:00,93.7,75.1,29.32,NW,315,0.0,1.3,55,0.00,,---,0.00,VWS V14.01,2013-08-29 17:24:00,
2013-08-29 12:29:00,94.1,74.4,29.32,WSW,248,1.3,1.6,53,0.00,,---,0.00,VWS V14.01,2013-08-29 17:29:00,
2013-08-29 12:34:00,94.6,73.1,29.32,West,270,1.3,1.6,50,0.00,,---,0.00,VWS V14.01,2013-08-29 17:34:00,
2013-08-29 12:39:00,94.8,71.5,29.32,West,270,2.9,2.9,47,0.00,,---,0.00,VWS V14.01,2013-08-29 17:39:00,
2013-08-29 12:44:00,94.3,73.4,29.29,WSW,248,0.9,1.6,51,0.00,,---,0.00,VWS V14.01,2013-08-29 17:44:00,
2013-08-29 12:49:00,94.3,73.4,29.29,West,270,1.6,1.6,51,0.00,,---,0.00,VWS V14.01,2013-08-29 17:49:00,
2013-08-29 12:54:00,94.3,73.4,29.29,WSW,248,2.5,2.5,51,0.00,,---,0.00,VWS V14.01,2013-08-29 17:54:00,
2013-08-29 12:59:00,94.3,73.4,29.29,WSW,248,0.9,1.3,51,0.00,,---,0.00,VWS V14.01,2013-08-29 17:59:00,
2013-08-29 13:04:00,94.8,73.3,29.29,West,270,1.1,1.1,50,0.00,,---,0.00,VWS V14.01,2013-08-29 18:04:00,
2013-08-29 13:09:00,93.7,69.2,29.29,WNW,292,1.1,3.1,45,0.00,,---,0.00,VWS V14.01,2013-08-29 18:09:00,
2013-08-29 13:14:00,93.9,72.5,29.29,WSW,248,0.0,1.1,50,0.00,,---,0.00,VWS V14.01,2013-08-29 18:14:00,
2013-08-29 13:19:00,92.1,73.6,29.29,WSW,248,0.0,0.9,55,0.00,,---,0.00,VWS V14.01,2013-08-29 18:19:00,
2013-08-29 13:24:00,92.5,74.5,29.29,WSW,248,2.0,2.0,56,0.00,,---,0.00,VWS V14.01,2013-08-29 18:24:00,
2013-08-29 13:29:00,92.7,74.1,29.29,West,270,3.8,3.8,55,0.00,,---,0.00,VWS V14.01,2013-08-29 18:29:00,
2013-08-29 13:34:00,92.5,70.6,29.29,East,90,2.9,3.8,49,0.00,,---,0.00,VWS V14.01,2013-08-29 18:34:00,
2013-08-29 13:39:00,92.3,71.0,29.29,WSW,248,1.3,2.7,50,0.00,,---,0.00,VWS V14.01,2013-08-29 18:39:00,
2013-08-29 13:44:00,92.3,71.0,29.26,WSW,248,1.1,1.1,50,0.00,,---,0.00,VWS V14.01,2013-08-29 18:44:00,
2013-08-29 13:49:00,91.6,74.2,29.26,WSW,248,1.3,1.6,57,0.00,,---,0.00,VWS V14.01,2013-08-29 18:49:00,
2013-08-29 13:54:00,92.1,74.7,29.26,NW,315,1.3,1.6,57,0.00,,---,0.00,VWS V14.01,2013-08-29 18:54:00,
2013-08-29 13:59:00,92.3,71.6,29.26,NW,315,2.7,2.9,51,0.00,,---,0.00,VWS V14.01,2013-08-29 18:59:00,
2013-08-29 14:04:00,93.9,73.1,29.26,WNW,292,1.1,2.0,51,0.00,,---,0.00,VWS V14.01,2013-08-29 19:04:00,
2013-08-29 14:09:00,94.8,72.7,29.26,SSE,158,0.9,1.6,49,0.00,,---,0.00,VWS V14.01,2013-08-29 19:09:00,
2013-08-29 14:14:00,95.0,75.8,29.26,West,270,3.4,3.4,54,0.00,,---,0.00,VWS V14.01,2013-08-29 19:14:00,
2013-08-29 14:19:00,95.2,76.5,29.26,East,90,1.1,2.7,55,0.00,,---,0.00,VWS V14.01,2013-08-29 19:19:00,
2013-08-29 14:24:00,95.9,77.1,29.26,WSW,248,2.7,4.0,55,0.00,,---,0.00,VWS V14.01,2013-08-29 19:24:00,
2013-08-29 14:29:00,96.1,74.4,29.26,West,270,0.9,1.6,50,0.00,,---,0.00,VWS V14.01,2013-08-29 19:29:00,
2013-08-29 14:34:00,96.4,75.4,29.26,ENE,68,1.6,1.6,51,0.00,,---,0.00,VWS V14.01,2013-08-29 19:34:00,
2013-08-29 14:39:00,97.0,75.3,29.26,ENE,68,1.1,1.1,50,0.00,,---,0.00,VWS V14.01,2013-08-29 19:39:00,
2013-08-29 14:44:00,93.6,73.3,29.26,ENE,68,0.0,0.0,52,0.00,,---,0.00,VWS V14.01,2013-08-29 19:44:00,
2013-08-29 14:49:00,91.0,72.6,29.26,ENE,68,0.0,0.0,55,0.00,,---,0.00,VWS V14.01,2013-08-29 19:49:00,
2013-08-29 14:54:00,89.6,72.4,29.26,ENE,68,0.0,1.1,57,0.00,,---,0.00,VWS V14.01,2013-08-29 19:54:00,
2013-08-29 14:59:00,91.6,75.7,29.26,NE,45,1.1,1.3,60,0.00,,---,0.00,VWS V14.01,2013-08-29 19:59:00,
2013-08-29 15:04:00,91.6,75.7,29.26,North,0,0.0,0.0,60,0.00,,---,0.00,VWS V14.01,2013-08-29 20:04:00,
2013-08-29 15:09:00,92.5,75.6,29.26,North,0,0.9,0.9,58,0.00,,---,0.00,VWS V14.01,2013-08-29 20:09:00,
2013-08-29 15:14:00,91.0,76.7,29.23,NNW,338,0.0,0.0,63,0.00,,---,0.00,VWS V14.01,2013-08-29 20:14:00,
2013-08-29 15:19:00,93.4,74.3,29.23,NNW,338,0.0,2.9,54,0.00,,---,0.00,VWS V14.01,2013-08-29 20:19:00,
2013-08-29 15:24:00,94.8,76.7,29.23,NNW,338,0.0,0.0,56,0.00,,---,0.00,VWS V14.01,2013-08-29 20:24:00,
2013-08-29 15:29:00,95.0,73.5,29.23,SW,225,0.0,0.0,50,0.00,,---,0.00,VWS V14.01,2013-08-29 20:29:00,
2013-08-29 15:34:00,93.7,74.0,29.23,SW,225,0.0,0.9,53,0.00,,---,0.00,VWS V14.01,2013-08-29 20:34:00,
2013-08-29 15:39:00,95.5,76.8,29.23,SW,225,1.6,1.6,55,0.00,,---,0.00,VWS V14.01,2013-08-29 20:39:00,
2013-08-29 15:44:00,96.4,78.2,29.20,NNW,338,2.5,2.5,56,0.00,,---,0.00,VWS V14.01,2013-08-29 20:44:00,
2013-08-29 15:49:00,96.3,74.0,29.20,West,270,2.5,2.5,49,0.00,,---,0.00,VWS V14.01,2013-08-29 20:49:00,
2013-08-29 15:54:00,97.2,74.8,29.20,West,270,0.0,2.5,49,0.00,,---,0.00,VWS V14.01,2013-08-29 20:54:00,
2013-08-29 15:59:00,97.0,75.9,29.20,West,270,1.6,1.6,51,0.00,,---,0.00,VWS V14.01,2013-08-29 20:59:00,
2013-08-29 16:03:00,96.3,75.8,29.20,West,270,0.0,0.0,52,0.00,,---,0.00,VWS V14.01,2013-08-29 21:03:00,
2013-08-29 16:08:00,97.2,76.6,29.20,West,270,1.1,1.6,52,0.00,,---,0.00,VWS V14.01,2013-08-29 21:08:00,
2013-08-29 16:13:00,95.9,73.1,29.20,West,270,1.3,1.3,48,0.00,,---,0.00,VWS V14.01,2013-08-29 21:13:00,
2013-08-29 16:18:00,95.4,73.8,29.20,West,270,0.0,0.0,50,0.00,,---,0.38,VWS V14.01,2013-08-29 21:18:00,
2013-08-29 16:23:00,95.7,74.1,29.20,West,270,0.0,0.0,50,0.00,,---,0.00,VWS V14.01,2013-08-29 21:23:00,
2013-08-29 16:28:00,95.7,75.3,29.20,West,270,0.9,1.3,52,0.00,,---,0.00,VWS V14.01,2013-08-29 21:28:00,
2013-08-29 16:33:00,95.5,75.1,29.20,West,270,0.9,2.0,52,0.00,,---,0.00,VWS V14.01,2013-08-29 21:33:00,
2013-08-29 16:38:00,95.5,74.5,29.20,ENE,68,0.0,0.0,51,0.00,,---,0.00,VWS V14.01,2013-08-29 21:38:00,
2013-08-29 16:43:00,94.8,73.3,29.20,East,90,2.2,2.2,50,0.00,,---,0.00,VWS V14.01,2013-08-29 21:43:00,
2013-08-29 16:48:00,93.7,72.3,29.20,NE,45,0.9,1.1,50,0.00,,---,0.00,VWS V14.01,2013-08-29 21:48:00,
2013-08-29 16:53:00,94.5,74.7,29.20,NE,45,0.0,0.0,53,0.00,,---,0.00,VWS V14.01,2013-08-29 21:53:00,
2013-08-29 16:58:00,95.0,75.2,29.20,NE,45,1.1,2.5,53,0.00,,---,0.00,VWS V14.01,2013-08-29 21:58:00,
2013-08-29 17:03:00,94.1,74.4,29.20,NE,45,0.0,0.0,53,0.00,,---,0.00,VWS V14.01,2013-08-29 22:03:00,
2013-08-29 17:08:00,93.9,74.2,29.20,NW,315,1.3,1.3,53,0.00,,---,0.00,VWS V14.01,2013-08-29 22:08:00,
2013-08-29 17:13:00,93.7,74.0,29.20,NW,315,0.0,1.3,53,0.00,,---,0.00,VWS V14.01,2013-08-29 22:13:00,
2013-08-29 17:18:00,93.0,72.2,29.20,WSW,248,2.0,2.0,51,0.00,,---,0.00,VWS V14.01,2013-08-29 22:18:00,
2013-08-29 17:23:00,93.4,73.1,29.20,WSW,248,1.3,1.3,52,0.00,,---,0.00,VWS V14.01,2013-08-29 22:23:00,
2013-08-29 17:28:00,93.2,73.0,29.20,WSW,248,1.6,1.6,52,0.00,,---,0.00,VWS V14.01,2013-08-29 22:28:00,
2013-08-29 17:33:00,92.8,73.8,29.20,WSW,248,0.0,0.0,54,0.00,,---,0.00,VWS V14.01,2013-08-29 22:33:00,
2013-08-29 17:38:00,93.0,73.9,29.20,WSW,248,0.0,0.0,54,0.00,,---,0.00,VWS V14.01,2013-08-29 22:38:00,
2013-08-29 17:43:00,93.0,73.9,29.20,WSW,248,0.0,0.0,54,0.00,,---,0.00,VWS V14.01,2013-08-29 22:43:00,
2013-08-29 17:48:00,92.3,72.1,29.20,East,90,2.0,2.0,52,0.00,,---,0.00,VWS V14.01,2013-08-29 22:48:00,
2013-08-29 17:53:00,91.8,73.3,29.20,ENE,68,0.0,0.0,55,0.00,,---,0.00,VWS V14.01,2013-08-29 22:53:00,
2013-08-29 17:58:00,91.0,73.2,29.17,ENE,68,0.0,0.0,56,0.00,,---,0.00,VWS V14.01,2013-08-29 22:58:00,
2013-08-29 18:03:00,90.7,74.4,29.17,ENE,68,0.0,0.0,59,0.00,,---,0.00,VWS V14.01,2013-08-29 23:03:00,
2013-08-29 18:08:00,90.7,73.4,29.17,NE,45,0.0,0.0,57,0.00,,---,0.00,VWS V14.01,2013-08-29 23:08:00,
2013-08-29 18:13:00,90.5,73.2,29.17,NE,45,0.0,0.0,57,0.00,,---,0.00,VWS V14.01,2013-08-29 23:13:00,
2013-08-29 18:18:00,89.6,72.9,29.20,NE,45,0.0,1.1,58,0.00,,---,0.00,VWS V14.01,2013-08-29 23:18:00,
2013-08-29 18:23:00,89.1,72.9,29.20,NNW,338,1.6,1.6,59,0.00,,---,0.00,VWS V14.01,2013-08-29 23:23:00,
2013-08-29 18:28:00,88.3,72.7,29.23,NNW,338,0.0,0.0,60,0.00,,---,0.00,VWS V14.01,2013-08-29 23:28:00,
2013-08-29 18:33:00,88.3,73.2,29.23,NNW,338,1.1,1.3,61,0.00,,---,0.00,VWS V14.01,2013-08-29 23:33:00,
2013-08-29 18:38:00,87.6,72.5,29.23,NNW,338,0.0,0.0,61,0.00,,---,0.00,VWS V14.01,2013-08-29 23:38:00,
2013-08-29 18:43:00,86.2,71.6,29.20,NNW,338,0.0,0.0,62,0.00,,---,0.00,VWS V14.01,2013-08-29 23:43:00,
2013-08-29 18:48:00,85.8,71.8,29.20,NNW,338,0.0,0.0,63,0.00,,---,0.00,VWS V14.01,2013-08-29 23:48:00,
2013-08-29 18:53:00,84.4,71.3,29.20,NNW,338,0.0,0.0,65,0.00,,---,0.00,VWS V14.01,2013-08-29 23:53:00,
2013-08-29 18:58:00,83.8,70.8,29.23,NNW,338,0.0,0.0,65,0.00,,---,0.00,VWS V14.01,2013-08-29 23:58:00,
2013-08-29 19:03:00,83.3,71.2,29.23,NNW,338,0.0,0.0,67,0.00,,---,0.00,VWS V14.01,2013-08-30 00:03:00,
2013-08-29 19:08:00,82.8,70.7,29.23,NNW,338,0.0,0.0,67,0.00,,---,0.00,VWS V14.01,2013-08-30 00:08:00,
2013-08-29 19:13:00,82.4,70.8,29.23,NNW,338,0.0,0.0,68,0.00,,---,0.00,VWS V14.01,2013-08-30 00:13:00,
2013-08-29 19:18:00,81.9,70.7,29.23,NNW,338,0.0,0.0,69,0.00,,---,0.00,VWS V14.01,2013-08-30 00:18:00,
2013-08-29 19:23:00,81.5,70.4,29.23,NNW,338,0.0,0.0,69,0.00,,---,0.00,VWS V14.01,2013-08-30 00:23:00,
2013-08-29 19:28:00,81.1,70.4,29.23,NNW,338,0.0,0.0,70,0.00,,---,0.00,VWS V14.01,2013-08-30 00:28:00,
2013-08-29 19:33:00,80.8,70.5,29.23,NNW,338,0.0,0.0,71,0.00,,---,0.00,VWS V14.01,2013-08-30 00:33:00,
2013-08-29 19:38:00,80.4,70.6,29.23,NNW,338,0.0,0.0,72,0.00,,---,0.00,VWS V14.01,2013-08-30 00:38:00,
2013-08-29 19:43:00,80.2,70.8,29.23,NNW,338,0.0,0.0,73,0.00,,---,0.00,VWS V14.01,2013-08-30 00:43:00,
2013-08-29 19:48:00,79.9,70.5,29.23,NNW,338,0.0,0.0,73,0.00,,---,0.00,VWS V14.01,2013-08-30 00:48:00,
2013-08-29 19:53:00,79.7,70.7,29.23,NNW,338,0.0,0.0,74,0.00,,---,0.00,VWS V14.01,2013-08-30 00:53:00,
2013-08-29 19:58:00,79.7,70.7,29.26,NNW,338,0.0,0.0,74,0.00,,---,0.00,VWS V14.01,2013-08-30 00:58:00,
2013-08-29 20:03:00,79.2,70.6,29.26,NNW,338,0.0,0.0,75,0.00,,---,0.00,VWS V14.01,2013-08-30 01:03:00,
2013-08-29 20:08:00,79.0,71.2,29.26,NNW,338,0.0,0.0,77,0.00,,---,0.00,VWS V14.01,2013-08-30 01:08:00,
2013-08-29 20:13:00,78.6,70.8,29.23,NNW,338,0.0,0.0,77,0.00,,---,0.00,VWS V14.01,2013-08-30 01:13:00,
2013-08-29 20:18:00,78.4,71.0,29.23,NNW,338,0.0,0.0,78,0.00,,---,0.00,VWS V14.01,2013-08-30 01:18:00,
2013-08-29 20:23:00,78.3,71.2,29.23,NNW,338,0.0,0.0,79,0.00,,---,0.00,VWS V14.01,2013-08-30 01:23:00,
2013-08-29 20:28:00,77.9,70.9,29.26,NNW,338,0.0,0.0,79,0.00,,---,0.00,VWS V14.01,2013-08-30 01:28:00,
2013-08-29 20:33:00,77.7,71.1,29.26,NNW,338,0.0,0.0,80,0.00,,---,0.00,VWS V14.01,2013-08-30 01:33:00,
2013-08-29 20:38:00,77.5,70.9,29.26,NNW,338,0.0,0.0,80,0.00,,---,0.00,VWS V14.01,2013-08-30 01:38:00,
2013-08-29 20:43:00,77.4,70.7,29.26,NNW,338,0.0,0.0,80,0.00,,---,0.00,VWS V14.01,2013-08-30 01:43:00,
2013-08-29 20:48:00,77.0,70.7,29.26,NNW,338,0.0,0.0,81,0.00,,---,0.00,VWS V14.01,2013-08-30 01:48:00,
2013-08-29 20:53:00,77.0,71.4,29.26,NNW,338,0.0,0.0,83,0.00,,---,0.00,VWS V14.01,2013-08-30 01:53:00,
2013-08-29 20:58:00,76.8,71.6,29.26,NNW,338,0.0,0.0,84,0.00,,---,0.00,VWS V14.01,2013-08-30 01:58:00,
2013-08-29 21:03:00,76.8,71.3,29.26,NNW,338,0.0,0.0,83,0.00,,---,0.00,VWS V14.01,2013-08-30 02:03:00,
2013-08-29 21:08:00,76.8,71.6,29.26,NNW,338,0.0,0.0,84,0.00,,---,0.00,VWS V14.01,2013-08-30 02:08:00,
2013-08-29 21:13:00,76.6,71.4,29.23,NNW,338,0.0,0.0,84,0.00,,---,0.00,VWS V14.01,2013-08-30 02:13:00,
2013-08-29 21:18:00,76.5,71.6,29.23,NNW,338,0.0,0.0,85,0.00,,---,0.00,VWS V14.01,2013-08-30 02:18:00,
2013-08-29 21:23:00,76.3,71.8,29.23,NNW,338,0.0,0.0,86,0.00,,---,0.00,VWS V14.01,2013-08-30 02:23:00,
2013-08-29 21:28:00,76.3,71.4,29.23,NNW,338,0.0,0.0,85,0.00,,---,0.00,VWS V14.01,2013-08-30 02:28:00,
2013-08-29 21:33:00,76.1,71.6,29.23,NNW,338,0.0,0.0,86,0.00,,---,0.00,VWS V14.01,2013-08-30 02:33:00,
2013-08-29 21:38:00,76.1,71.6,29.23,NNW,338,0.0,0.0,86,0.00,,---,0.00,VWS V14.01,2013-08-30 02:38:00,
2013-08-29 21:43:00,75.9,71.8,29.23,NNW,338,0.0,0.0,87,0.00,,---,0.00,VWS V14.01,2013-08-30 02:43:00,
2013-08-29 21:48:00,75.9,71.4,29.23,NNW,338,0.0,0.0,86,0.00,,---,0.00,VWS V14.01,2013-08-30 02:48:00,
2013-08-29 21:53:00,75.7,71.6,29.23,NNW,338,0.0,0.0,87,0.00,,---,0.00,VWS V14.01,2013-08-30 02:53:00,
2013-08-29 21:57:00,75.7,71.9,29.26,NNW,338,0.0,0.0,88,0.00,,---,0.00,VWS V14.01,2013-08-30 02:57:00,
2013-08-29 22:02:00,75.7,71.9,29.26,NNW,338,0.0,0.0,88,0.00,,---,0.00,VWS V14.01,2013-08-30 03:02:00,
2013-08-29 22:07:00,75.6,71.8,29.26,NNW,338,0.0,0.0,88,0.00,,---,0.00,VWS V14.01,2013-08-30 03:07:00,
2013-08-29 22:12:00,75.4,71.6,29.26,NNW,338,0.0,0.0,88,0.00,,---,0.00,VWS V14.01,2013-08-30 03:12:00,
2013-08-29 22:17:00,75.2,71.7,29.26,NNW,338,0.0,0.0,89,0.00,,---,0.00,VWS V14.01,2013-08-30 03:17:00,
2013-08-29 22:22:00,75.2,71.4,29.26,NNW,338,0.0,0.0,88,0.00,,---,0.00,VWS V14.01,2013-08-30 03:22:00,
2013-08-29 22:27:00,75.0,71.6,29.23,NNW,338,0.0,0.0,89,0.00,,---,0.00,VWS V14.01,2013-08-30 03:27:00,
2013-08-29 22:32:00,75.0,71.6,29.23,NNW,338,0.0,0.0,89,0.00,,---,0.00,VWS V14.01,2013-08-30 03:32:00,
2013-08-29 22:37:00,75.2,71.7,29.23,NNW,338,0.0,0.0,89,0.00,,---,0.00,VWS V14.01,2013-08-30 03:37:00,
2013-08-29 22:42:00,75.2,71.7,29.23,NNW,338,0.0,0.0,89,0.00,,---,0.00,VWS V14.01,2013-08-30 03:42:00,
2013-08-29 22:47:00,75.2,71.7,29.23,NNW,338,0.0,0.0,89,0.00,,---,0.00,VWS V14.01,2013-08-30 03:47:00,
2013-08-29 22:52:00,75.0,71.9,29.23,NNW,338,0.0,0.0,90,0.00,,---,0.00,VWS V14.01,2013-08-30 03:52:00,
2013-08-29 22:57:00,74.8,71.7,29.23,NNW,338,0.0,0.0,90,0.00,,---,0.00,VWS V14.01,2013-08-30 03:57:00,
2013-08-29 23:01:00,74.8,71.7,29.23,NNW,338,0.0,0.0,90,0.00,,---,0.00,VWS V14.01,2013-08-30 04:01:00,
2013-08-29 23:06:00,74.7,71.5,29.23,NNW,338,0.0,0.0,90,0.00,,---,0.00,VWS V14.01,2013-08-30 04:06:00,
2013-08-29 23:11:00,74.5,71.4,29.23,NNW,338,0.0,0.0,90,0.00,,---,0.00,VWS V14.01,2013-08-30 04:11:00,
2013-08-29 23:16:00,74.5,71.4,29.23,NNW,338,0.0,0.0,90,0.00,,---,0.00,VWS V14.01,2013-08-30 04:16:00,
2013-08-29 23:21:00,74.3,71.2,29.23,NNW,338,0.0,0.0,90,0.00,,---,0.00,VWS V14.01,2013-08-30 04:21:00,
2013-08-29 23:26:00,74.1,71.3,29.23,NNW,338,0.0,0.0,91,0.00,,---,0.00,VWS V14.01,2013-08-30 04:26:00,
2013-08-29 23:31:00,74.1,71.3,29.23,NNW,338,0.0,0.0,91,0.00,,---,0.00,VWS V14.01,2013-08-30 04:31:00,
2013-08-29 23:36:00,73.9,71.2,29.23,NNW,338,0.0,0.0,91,0.00,,---,0.00,VWS V14.01,2013-08-30 04:36:00,
2013-08-29 23:41:00,73.9,71.2,29.26,NNW,338,0.0,0.0,91,0.00,,---,0.00,VWS V14.01,2013-08-30 04:41:00,
2013-08-29 23:46:00,73.8,71.3,29.26,NNW,338,0.0,0.0,92,0.00,,---,0.00,VWS V14.01,2013-08-30 04:46:00,
2013-08-29 23:51:00,73.8,71.3,29.26,NNW,338,0.0,0.0,92,0.00,,---,0.00,VWS V14.01,2013-08-30 04:51:00,
2013-08-29 23:56:00,73.6,71.1,29.26,NNW,338,0.0,0.0,92,0.00,,---,0.00,VWS V14.01,2013-08-30 04:56:00,